createdAt,value
2019-03-15T00:00:09.775Z,6.18
2019-03-15T00:01:09.777Z,6.19
2019-03-15T00:02:09.760Z,6.14
2019-03-15T00:03:09.790Z,6.13
2019-03-15T00:04:09.757Z,6.10
2019-03-15T00:05:09.751Z,6.13
2019-03-15T00:06:09.748Z,6.16
2019-03-15T00:07:09.740Z,6.33
2019-03-15T00:08:09.772Z,6.30
2019-03-15T00:09:09.744Z,6.13
2019-03-15T00:10:09.728Z,6.19
2019-03-15T00:11:09.720Z,6.35
2019-03-15T00:12:09.760Z,6.30
2019-03-15T00:13:09.751Z,6.36
2019-03-15T00:14:09.711Z,6.25
2019-03-15T00:15:09.715Z,6.29
2019-03-15T00:16:09.703Z,6.19
2019-03-15T00:17:09.700Z,6.14
2019-03-15T00:18:09.746Z,6.18
2019-03-15T00:19:09.692Z,6.18
2019-03-15T00:20:09.690Z,6.26
2019-03-15T00:21:09.868Z,6.28
2019-03-15T00:22:09.681Z,6.26
2019-03-15T00:23:09.677Z,6.29
2019-03-15T00:24:09.704Z,6.25
2019-03-15T00:25:09.674Z,6.22
2019-03-15T00:26:09.662Z,6.16
2019-03-15T00:27:09.657Z,6.07
2019-03-15T00:28:09.648Z,6.09
2019-03-15T00:29:09.679Z,6.09
2019-03-15T00:30:10.220Z,6.09
2019-03-15T00:31:09.644Z,6.01
2019-03-15T00:32:09.635Z,6.00
2019-03-15T00:33:09.633Z,5.92
2019-03-15T00:34:09.658Z,5.91
2019-03-15T00:35:09.791Z,5.81
2019-03-15T00:36:09.618Z,5.85
2019-03-15T00:37:09.621Z,5.78
2019-03-15T00:38:09.608Z,5.82
2019-03-15T00:39:09.635Z,5.74
2019-03-15T00:40:09.603Z,5.83
2019-03-15T00:41:09.958Z,5.74
2019-03-15T00:42:09.606Z,5.88
2019-03-15T00:43:09.591Z,5.88
2019-03-15T00:44:09.612Z,5.88
2019-03-15T00:45:09.610Z,5.96
2019-03-15T00:46:09.579Z,5.89
2019-03-15T00:47:09.569Z,5.83
2019-03-15T00:48:09.567Z,5.77
2019-03-15T00:49:09.599Z,5.83
2019-03-15T00:50:09.562Z,5.74
2019-03-15T00:51:09.583Z,5.68
2019-03-15T00:52:09.551Z,5.73
2019-03-15T00:53:09.549Z,5.73
2019-03-15T00:54:09.571Z,5.75
2019-03-15T00:55:09.535Z,5.82
2019-03-15T00:56:09.536Z,5.83
2019-03-15T00:57:09.530Z,5.83
2019-03-15T00:58:09.526Z,5.78
2019-03-15T00:59:09.551Z,5.82
2019-03-15T01:00:09.514Z,5.70
2019-03-15T01:01:09.514Z,5.73
2019-03-15T01:02:09.503Z,5.86
2019-03-15T01:03:09.504Z,5.81
2019-03-15T01:04:09.791Z,5.85
2019-03-15T01:05:09.528Z,5.85
2019-03-15T01:06:09.492Z,5.83
2019-03-15T01:07:09.568Z,5.88
2019-03-15T01:08:09.499Z,5.77
2019-03-15T01:09:09.506Z,5.82
2019-03-15T01:10:09.501Z,5.81
2019-03-15T01:11:09.464Z,5.75
2019-03-15T01:12:09.463Z,5.70
2019-03-15T01:13:09.464Z,5.89
2019-03-15T01:14:09.487Z,5.89
2019-03-15T01:15:09.450Z,5.89
2019-03-15T01:16:09.494Z,5.93
2019-03-15T01:17:09.443Z,5.92
2019-03-15T01:18:09.438Z,5.93
2019-03-15T01:19:09.461Z,5.92
2019-03-15T01:20:09.433Z,6.00
2019-03-15T01:21:09.426Z,5.91
2019-03-15T01:22:09.427Z,5.96
2019-03-15T01:23:09.410Z,5.93
2019-03-15T01:24:09.446Z,5.86
2019-03-15T01:25:09.406Z,6.00
2019-03-15T01:26:09.405Z,5.89
2019-03-15T01:27:09.399Z,5.96
2019-03-15T01:28:09.392Z,5.92
2019-03-15T01:29:09.419Z,5.95
2019-03-15T01:30:09.415Z,5.95
2019-03-15T01:31:09.382Z,5.96
2019-03-15T01:32:09.378Z,5.98
2019-03-15T01:33:09.374Z,5.82
2019-03-15T01:34:09.397Z,5.91
2019-03-15T01:35:09.371Z,5.93
2019-03-15T01:36:09.386Z,5.89
2019-03-15T01:37:09.351Z,5.92
2019-03-15T01:38:09.368Z,5.91
2019-03-15T01:39:10.091Z,5.95
2019-03-15T01:40:09.341Z,5.93
2019-03-15T01:41:09.341Z,5.89
2019-03-15T01:42:09.334Z,6.00
2019-03-15T01:43:09.329Z,5.98
2019-03-15T01:44:09.325Z,6.03
2019-03-15T01:45:09.351Z,6.03
2019-03-15T01:46:09.319Z,6.07
2019-03-15T01:47:09.314Z,6.07
2019-03-15T01:48:09.308Z,6.09
2019-03-15T01:49:09.306Z,6.10
2019-03-15T01:50:09.330Z,6.03
2019-03-15T01:51:09.322Z,5.96
2019-03-15T01:52:09.289Z,6.00
2019-03-15T01:53:09.290Z,5.93
2019-03-15T01:54:09.285Z,5.92
2019-03-15T01:55:09.312Z,5.89
2019-03-15T01:56:09.274Z,5.98
2019-03-15T01:57:09.270Z,5.83
2019-03-15T01:58:09.269Z,5.74
2019-03-15T01:59:09.261Z,5.68
2019-03-15T02:00:09.284Z,5.74
2019-03-15T02:01:09.252Z,5.60
2019-03-15T02:02:09.248Z,5.63
2019-03-15T02:03:09.247Z,5.60
2019-03-15T02:04:09.252Z,5.68
2019-03-15T02:05:09.268Z,5.59
2019-03-15T02:06:09.235Z,5.63
2019-03-15T02:07:09.307Z,5.63
2019-03-15T02:08:09.220Z,5.55
2019-03-15T02:09:09.507Z,5.66
2019-03-15T02:10:09.265Z,5.66
2019-03-15T02:11:09.203Z,5.64
2019-03-15T02:12:09.205Z,5.63
2019-03-15T02:13:09.197Z,5.63
2019-03-15T02:14:09.192Z,5.63
2019-03-15T02:15:09.273Z,5.64
2019-03-15T02:16:09.190Z,5.63
2019-03-15T02:17:09.185Z,5.63
2019-03-15T02:18:09.176Z,5.68
2019-03-15T02:19:10.299Z,5.49
2019-03-15T02:20:09.206Z,5.59
2019-03-15T02:21:09.288Z,5.63
2019-03-15T02:22:09.156Z,5.59
2019-03-15T02:23:09.150Z,5.56
2019-03-15T02:24:09.153Z,5.60
2019-03-15T02:25:09.179Z,5.64
2019-03-15T02:26:09.167Z,5.67
2019-03-15T02:27:09.135Z,5.71
2019-03-15T02:28:09.138Z,5.63
2019-03-15T02:29:09.128Z,5.64
2019-03-15T02:30:09.301Z,5.63
2019-03-15T02:31:09.136Z,5.70
2019-03-15T02:32:09.118Z,5.57
2019-03-15T02:33:09.108Z,5.63
2019-03-15T02:34:09.107Z,5.71
2019-03-15T02:35:09.128Z,5.63
2019-03-15T02:36:09.133Z,5.66
2019-03-15T02:37:09.093Z,5.71
2019-03-15T02:38:09.089Z,5.68
2019-03-15T02:39:09.084Z,5.74
2019-03-15T02:40:09.113Z,5.78
2019-03-15T02:41:09.076Z,5.83
2019-03-15T02:42:09.077Z,5.81
2019-03-15T02:43:09.063Z,5.96
2019-03-15T02:44:09.091Z,5.89
2019-03-15T02:45:09.082Z,5.92
2019-03-15T02:46:09.051Z,6.01
2019-03-15T02:47:09.050Z,6.01
2019-03-15T02:48:09.051Z,6.04
2019-03-15T02:49:09.046Z,6.03
2019-03-15T02:50:09.064Z,6.06
2019-03-15T02:51:09.028Z,6.04
2019-03-15T02:52:09.024Z,6.09
2019-03-15T02:53:09.302Z,6.13
2019-03-15T02:54:09.024Z,6.13
2019-03-15T02:55:09.043Z,6.09
2019-03-15T02:56:09.006Z,6.14
2019-03-15T02:57:09.068Z,6.09
2019-03-15T02:58:09.000Z,6.09
2019-03-15T02:59:08.995Z,6.14
2019-03-15T03:00:08.990Z,6.10
2019-03-15T03:01:09.022Z,6.10
2019-03-15T03:02:08.975Z,6.19
2019-03-15T03:03:08.974Z,6.18
2019-03-15T03:04:08.973Z,6.25
2019-03-15T03:05:09.072Z,6.18
2019-03-15T03:06:08.996Z,6.14
2019-03-15T03:07:08.959Z,6.26
2019-03-15T03:08:08.959Z,6.18
2019-03-15T03:09:09.066Z,6.11
2019-03-15T03:10:08.950Z,6.13
2019-03-15T03:11:08.998Z,6.13
2019-03-15T03:12:08.940Z,6.13
2019-03-15T03:13:08.950Z,6.01
2019-03-15T03:14:09.245Z,6.06
2019-03-15T03:15:08.925Z,6.01
2019-03-15T03:16:08.955Z,6.03
2019-03-15T03:17:08.927Z,6.14
2019-03-15T03:18:08.923Z,6.04
2019-03-15T03:19:08.904Z,6.14
2019-03-15T03:20:08.908Z,6.09
2019-03-15T03:21:08.933Z,6.06
2019-03-15T03:22:09.289Z,6.10
2019-03-15T03:23:08.893Z,6.01
2019-03-15T03:24:08.885Z,6.09
2019-03-15T03:25:08.879Z,6.18
2019-03-15T03:26:08.913Z,6.14
2019-03-15T03:27:08.890Z,6.21
2019-03-15T03:28:08.871Z,6.18
2019-03-15T03:29:08.864Z,6.19
2019-03-15T03:30:08.862Z,6.18
2019-03-15T03:31:08.890Z,6.25
2019-03-15T03:32:08.858Z,6.13
2019-03-15T03:33:08.888Z,6.28
2019-03-15T03:34:08.997Z,6.21
2019-03-15T03:35:10.070Z,6.30
2019-03-15T03:36:08.872Z,6.29
2019-03-15T03:37:08.835Z,6.22
2019-03-15T03:38:08.835Z,6.14
2019-03-15T03:39:08.823Z,6.30
2019-03-15T03:40:08.824Z,6.29
2019-03-15T03:41:08.858Z,6.29
2019-03-15T03:42:08.828Z,6.26
2019-03-15T03:43:08.805Z,6.33
2019-03-15T03:44:08.798Z,6.33
2019-03-15T03:45:08.798Z,6.35
2019-03-15T03:46:08.822Z,6.33
2019-03-15T03:47:08.790Z,6.30
2019-03-15T03:48:08.787Z,6.30
2019-03-15T03:49:08.786Z,6.32
2019-03-15T03:50:08.779Z,6.36
2019-03-15T03:51:08.894Z,6.18
2019-03-15T03:52:08.926Z,6.19
2019-03-15T03:53:08.797Z,6.30
2019-03-15T03:54:08.762Z,6.33
2019-03-15T03:55:08.759Z,6.29
2019-03-15T03:56:08.787Z,6.22
2019-03-15T03:57:08.746Z,6.30
2019-03-15T03:58:08.747Z,6.32
2019-03-15T03:59:08.738Z,6.32
2019-03-15T04:00:08.740Z,6.28
2019-03-15T04:01:08.779Z,6.28
2019-03-15T04:02:08.726Z,6.29
2019-03-15T04:03:08.718Z,6.19
2019-03-15T04:04:08.718Z,6.28
2019-03-15T04:05:08.741Z,6.26
2019-03-15T04:06:08.733Z,6.30
2019-03-15T04:07:08.828Z,6.26
2019-03-15T04:08:08.710Z,6.29
2019-03-15T04:09:08.696Z,6.26
2019-03-15T04:10:08.696Z,6.19
2019-03-15T04:11:08.718Z,6.25
2019-03-15T04:12:08.690Z,6.30
2019-03-15T04:13:08.681Z,6.29
2019-03-15T04:14:08.676Z,6.28
2019-03-15T04:15:08.675Z,6.33
2019-03-15T04:16:08.699Z,6.21
2019-03-15T04:17:08.696Z,6.25
2019-03-15T04:18:08.683Z,6.13
2019-03-15T04:19:08.659Z,6.26
2019-03-15T04:20:08.652Z,6.13
2019-03-15T04:21:08.650Z,6.28
2019-03-15T04:22:08.676Z,6.16
2019-03-15T04:23:08.670Z,6.19
2019-03-15T04:24:08.741Z,6.09
2019-03-15T04:25:08.633Z,5.95
2019-03-15T04:26:08.640Z,5.91
2019-03-15T04:27:08.657Z,5.77
2019-03-15T04:28:08.622Z,5.71
2019-03-15T04:29:08.619Z,5.64
2019-03-15T04:30:09.099Z,5.63
2019-03-15T04:31:08.608Z,5.63
2019-03-15T04:32:08.628Z,5.59
2019-03-15T04:33:08.629Z,5.59
2019-03-15T04:34:08.601Z,5.55
2019-03-15T04:35:08.617Z,5.56
2019-03-15T04:36:08.584Z,5.56
2019-03-15T04:37:09.371Z,5.50
2019-03-15T04:38:08.587Z,5.55
2019-03-15T04:39:08.572Z,5.43
2019-03-15T04:40:08.569Z,5.38
2019-03-15T04:41:08.567Z,5.28
2019-03-15T04:42:08.594Z,5.23
2019-03-15T04:43:08.579Z,5.25
2019-03-15T04:44:08.551Z,5.30
2019-03-15T04:45:08.544Z,5.25
2019-03-15T04:46:08.542Z,5.16
2019-03-15T04:47:08.533Z,5.19
2019-03-15T04:48:08.562Z,5.27
2019-03-15T04:49:08.524Z,5.25
2019-03-15T04:50:08.521Z,5.31
2019-03-15T04:51:08.522Z,5.35
2019-03-15T04:52:08.546Z,5.28
2019-03-15T04:53:08.520Z,5.34
2019-03-15T04:54:08.532Z,5.34
2019-03-15T04:55:08.503Z,5.43
2019-03-15T04:56:08.488Z,5.34
2019-03-15T04:57:08.520Z,5.35
2019-03-15T04:58:08.482Z,5.40
2019-03-15T04:59:08.480Z,5.45
2019-03-15T05:00:08.478Z,5.50
2019-03-15T05:01:08.476Z,5.46
2019-03-15T05:02:08.497Z,5.59
2019-03-15T05:03:08.459Z,5.57
2019-03-15T05:04:08.456Z,5.67
2019-03-15T05:05:09.259Z,5.64
2019-03-15T05:06:08.450Z,5.64
2019-03-15T05:07:08.479Z,5.63
2019-03-15T05:08:08.440Z,5.64
2019-03-15T05:09:08.433Z,5.63
2019-03-15T05:10:08.432Z,5.56
2019-03-15T05:11:08.427Z,5.49
2019-03-15T05:12:08.447Z,5.57
2019-03-15T05:13:08.447Z,5.49
2019-03-15T05:14:08.407Z,5.45
2019-03-15T05:15:08.403Z,5.37
2019-03-15T05:16:08.399Z,5.38
2019-03-15T05:17:08.423Z,5.34
2019-03-15T05:18:08.388Z,5.23
2019-03-15T05:19:08.408Z,5.35
2019-03-15T05:20:08.420Z,5.31
2019-03-15T05:21:08.376Z,5.27
2019-03-15T05:22:08.397Z,5.19
2019-03-15T05:23:08.371Z,5.16
2019-03-15T05:24:08.359Z,5.22
2019-03-15T05:25:08.362Z,5.16
2019-03-15T05:26:08.353Z,5.23
2019-03-15T05:27:08.377Z,5.31
2019-03-15T05:28:08.343Z,5.14
2019-03-15T05:29:08.339Z,5.20
2019-03-15T05:30:08.342Z,5.25
2019-03-15T05:31:08.326Z,5.25
2019-03-15T05:32:08.353Z,5.22
2019-03-15T05:33:08.315Z,5.25
2019-03-15T05:34:08.317Z,5.27
2019-03-15T05:35:08.308Z,5.27
2019-03-15T05:36:08.314Z,5.32
2019-03-15T05:37:08.323Z,5.27
2019-03-15T05:38:08.325Z,5.34
2019-03-15T05:39:08.291Z,5.28
2019-03-15T05:40:08.285Z,5.40
2019-03-15T05:41:08.283Z,5.34
2019-03-15T05:42:08.280Z,5.37
2019-03-15T05:43:08.335Z,5.35
2019-03-15T05:44:08.318Z,5.49
2019-03-15T05:45:08.382Z,5.41
2019-03-15T05:46:08.256Z,5.55
2019-03-15T05:47:08.251Z,5.53
2019-03-15T05:48:08.279Z,5.50
2019-03-15T05:49:08.249Z,5.55
2019-03-15T05:50:08.272Z,5.50
2019-03-15T05:51:08.234Z,5.59
2019-03-15T05:52:08.231Z,5.56
2019-03-15T05:53:08.257Z,5.63
2019-03-15T05:54:08.244Z,5.64
2019-03-15T05:55:08.221Z,5.56
2019-03-15T05:56:08.210Z,5.59
2019-03-15T05:57:08.205Z,5.66
2019-03-15T05:58:08.259Z,5.64
2019-03-15T05:59:08.202Z,5.70
2019-03-15T06:00:08.222Z,5.71
2019-03-15T06:01:08.190Z,5.73
2019-03-15T06:02:08.187Z,5.70
2019-03-15T06:03:08.207Z,5.75
2019-03-15T06:04:08.173Z,5.77
2019-03-15T06:05:08.973Z,5.78
2019-03-15T06:06:08.167Z,5.85
2019-03-15T06:07:08.169Z,5.78
2019-03-15T06:08:08.189Z,5.78
2019-03-15T06:09:08.186Z,5.85
2019-03-15T06:10:08.145Z,5.83
2019-03-15T06:11:08.142Z,5.85
2019-03-15T06:12:08.142Z,5.81
2019-03-15T06:13:08.172Z,5.88
2019-03-15T06:14:08.140Z,5.89
2019-03-15T06:15:08.132Z,5.93
2019-03-15T06:16:08.121Z,5.93
2019-03-15T06:17:08.118Z,6.06
2019-03-15T06:18:08.138Z,6.00
2019-03-15T06:19:08.146Z,6.11
2019-03-15T06:20:08.103Z,6.16
2019-03-15T06:21:08.106Z,6.14
2019-03-15T06:22:08.093Z,6.11
2019-03-15T06:23:08.123Z,6.28
2019-03-15T06:24:08.090Z,6.28
2019-03-15T06:25:08.112Z,6.30
2019-03-15T06:26:08.101Z,6.35
2019-03-15T06:27:08.141Z,6.28
2019-03-15T06:28:08.073Z,6.32
2019-03-15T06:29:08.110Z,6.33
2019-03-15T06:30:08.065Z,6.41
2019-03-15T06:31:08.053Z,6.30
2019-03-15T06:32:08.055Z,6.36
2019-03-15T06:33:08.091Z,6.32
2019-03-15T06:34:08.047Z,6.32
2019-03-15T06:35:08.041Z,6.35
2019-03-15T06:36:08.037Z,6.36
2019-03-15T06:37:08.029Z,6.38
2019-03-15T06:38:08.061Z,6.35
2019-03-15T06:39:08.468Z,6.35
2019-03-15T06:40:08.021Z,6.41
2019-03-15T06:41:08.624Z,6.40
2019-03-15T06:42:08.011Z,6.41
2019-03-15T06:43:08.045Z,6.50
2019-03-15T06:44:08.008Z,6.51
2019-03-15T06:45:08.033Z,6.53
2019-03-15T06:46:08.001Z,6.51
2019-03-15T06:47:07.996Z,6.47
2019-03-15T06:48:08.020Z,6.53
2019-03-15T06:49:07.984Z,6.47
2019-03-15T06:50:07.983Z,6.48
2019-03-15T06:51:09.262Z,6.51
2019-03-15T06:52:07.973Z,6.53
2019-03-15T06:53:08.000Z,6.51
2019-03-15T06:54:11.618Z,6.59
2019-03-15T06:55:07.965Z,6.59
2019-03-15T06:56:07.961Z,6.56
2019-03-15T06:57:07.954Z,6.59
2019-03-15T06:58:07.989Z,6.56
2019-03-15T06:59:07.948Z,6.68
2019-03-15T07:00:07.947Z,6.76
2019-03-15T07:01:07.941Z,6.81
2019-03-15T07:02:07.939Z,6.80
2019-03-15T07:03:07.936Z,6.69
2019-03-15T07:04:07.960Z,6.91
2019-03-15T07:05:07.932Z,6.77
2019-03-15T07:06:07.936Z,6.84
2019-03-15T07:07:07.920Z,6.97
2019-03-15T07:08:07.928Z,6.99
2019-03-15T07:09:07.977Z,6.95
2019-03-15T07:10:07.909Z,7.01
2019-03-15T07:11:07.909Z,7.01
2019-03-15T07:12:09.718Z,7.08
2019-03-15T07:13:07.899Z,6.99
2019-03-15T07:14:07.930Z,7.05
2019-03-15T07:15:07.934Z,7.09
2019-03-15T07:16:07.891Z,6.97
2019-03-15T07:17:07.888Z,7.01
2019-03-15T07:18:08.039Z,7.07
2019-03-15T07:19:07.909Z,7.05
2019-03-15T07:20:07.878Z,7.04
2019-03-15T07:21:07.903Z,7.19
2019-03-15T07:22:07.871Z,7.15
2019-03-15T07:23:07.870Z,7.13
2019-03-15T07:24:07.897Z,7.20
2019-03-15T07:25:07.860Z,7.16
2019-03-15T07:26:07.853Z,7.24
2019-03-15T07:27:12.650Z,7.27
2019-03-15T07:28:07.852Z,7.27
2019-03-15T07:29:07.872Z,7.27
2019-03-15T07:30:07.839Z,7.29
2019-03-15T07:31:07.843Z,7.37
2019-03-15T07:32:07.840Z,7.38
2019-03-15T07:33:07.862Z,7.32
2019-03-15T07:34:07.860Z,7.35
2019-03-15T07:35:07.832Z,7.37
2019-03-15T07:36:07.827Z,7.50
2019-03-15T07:37:07.823Z,7.45
2019-03-15T07:38:07.824Z,7.63
2019-03-15T07:39:07.844Z,7.71
2019-03-15T07:40:07.847Z,7.63
2019-03-15T07:41:07.810Z,7.66
2019-03-15T07:42:07.803Z,7.69
2019-03-15T07:43:07.807Z,7.71
2019-03-15T07:44:07.875Z,7.71
2019-03-15T07:45:07.831Z,7.84
2019-03-15T07:46:07.800Z,7.82
2019-03-15T07:47:07.857Z,7.81
2019-03-15T07:48:21.354Z,7.81
2019-03-15T07:49:07.793Z,7.84
2019-03-15T07:50:07.815Z,7.77
2019-03-15T07:51:07.783Z,7.84
2019-03-15T07:52:07.789Z,7.75
2019-03-15T07:53:07.778Z,7.66
2019-03-15T07:54:07.807Z,7.69
2019-03-15T07:55:07.775Z,7.67
2019-03-15T07:56:07.778Z,7.72
2019-03-15T07:57:07.770Z,7.77
2019-03-15T07:58:07.766Z,7.67
2019-03-15T07:59:07.846Z,7.81
2019-03-15T08:00:07.762Z,7.74
2019-03-15T08:01:07.758Z,7.85
2019-03-15T08:02:07.754Z,7.84
2019-03-15T08:03:07.758Z,7.85
2019-03-15T08:04:16.831Z,7.93
2019-03-15T08:05:07.752Z,7.92
2019-03-15T08:06:07.741Z,7.93
2019-03-15T08:07:07.742Z,7.92
2019-03-15T08:08:07.743Z,7.90
2019-03-15T08:09:07.766Z,7.97
2019-03-15T08:10:07.740Z,8.00
2019-03-15T08:11:07.737Z,8.07
2019-03-15T08:12:07.734Z,8.04
2019-03-15T08:13:07.730Z,8.04
2019-03-15T08:14:07.722Z,7.97
2019-03-15T08:15:07.749Z,8.00
2019-03-15T08:16:07.724Z,8.04
2019-03-15T08:17:07.721Z,8.08
2019-03-15T08:18:07.713Z,8.10
2019-03-15T08:19:07.718Z,8.15
2019-03-15T08:20:07.738Z,8.02
2019-03-15T08:21:07.715Z,8.17
2019-03-15T08:22:07.773Z,8.14
2019-03-15T08:23:08.866Z,8.17
2019-03-15T08:24:07.702Z,8.00
2019-03-15T08:25:07.818Z,7.97
2019-03-15T08:26:07.701Z,7.97
2019-03-15T08:27:07.700Z,8.11
2019-03-15T08:28:07.700Z,8.15
2019-03-15T08:29:09.572Z,8.03
2019-03-15T08:30:07.722Z,8.07
2019-03-15T08:31:07.685Z,8.08
2019-03-15T08:32:07.720Z,8.10
2019-03-15T08:33:10.577Z,7.92
2019-03-15T08:34:07.674Z,7.89
2019-03-15T08:35:07.703Z,7.94
2019-03-15T08:36:07.673Z,8.00
2019-03-15T08:37:07.686Z,7.93
2019-03-15T08:38:07.675Z,8.00
2019-03-15T08:39:07.666Z,8.02
2019-03-15T08:40:07.693Z,8.03
2019-03-15T08:41:07.663Z,7.97
2019-03-15T08:42:07.657Z,8.10
2019-03-15T08:43:07.654Z,8.00
2019-03-15T08:44:07.662Z,8.03
2019-03-15T08:45:07.681Z,8.11
2019-03-15T08:46:07.681Z,8.11
2019-03-15T08:47:07.648Z,8.11
2019-03-15T08:48:07.641Z,8.14
2019-03-15T08:49:07.642Z,8.28
2019-03-15T08:50:07.683Z,8.29
2019-03-15T08:51:10.483Z,8.21
2019-03-15T08:52:07.633Z,8.21
2019-03-15T08:53:07.634Z,8.22
2019-03-15T08:54:07.630Z,8.17
2019-03-15T08:55:07.653Z,8.11
2019-03-15T08:56:07.625Z,7.96
2019-03-15T08:57:07.621Z,7.97
2019-03-15T08:58:13.870Z,7.92
2019-03-15T08:59:07.616Z,8.08
2019-03-15T09:00:07.712Z,7.94
2019-03-15T09:01:10.716Z,8.12
2019-03-15T09:02:07.673Z,8.08
2019-03-15T09:03:07.603Z,8.03
2019-03-15T09:04:07.608Z,8.12
2019-03-15T09:05:07.601Z,8.10
2019-03-15T09:06:07.631Z,8.11
2019-03-15T09:07:07.600Z,8.15
2019-03-15T09:08:07.596Z,8.25
2019-03-15T09:09:07.591Z,8.14
2019-03-15T09:10:21.320Z,8.07
2019-03-15T09:11:07.617Z,8.07
2019-03-15T09:12:07.591Z,8.14
2019-03-15T09:13:07.588Z,8.17
2019-03-15T09:14:07.582Z,8.07
2019-03-15T09:15:07.579Z,8.04
2019-03-15T09:16:07.605Z,8.03
2019-03-15T09:17:07.601Z,8.07
2019-03-15T09:18:07.568Z,7.97
2019-03-15T09:19:07.575Z,7.94
2019-03-15T09:20:07.564Z,8.07
2019-03-15T09:21:07.620Z,7.96
2019-03-15T09:22:07.561Z,8.07
2019-03-15T09:23:07.556Z,7.93
2019-03-15T09:24:07.556Z,8.00
2019-03-15T09:25:18.482Z,7.94
2019-03-15T09:26:10.307Z,7.96
2019-03-15T09:27:10.325Z,7.92
2019-03-15T09:28:07.546Z,7.90
2019-03-15T09:29:07.551Z,7.85
2019-03-15T09:30:07.543Z,7.85
2019-03-15T09:31:07.862Z,7.84
2019-03-15T09:32:09.306Z,7.87
2019-03-15T09:33:07.560Z,7.71
2019-03-15T09:34:07.528Z,7.66
2019-03-15T09:35:07.524Z,7.81
2019-03-15T09:36:07.553Z,7.82
2019-03-15T09:37:07.524Z,7.85
2019-03-15T09:38:10.312Z,7.75
2019-03-15T09:39:07.516Z,7.67
2019-03-15T09:40:07.512Z,7.63
2019-03-15T09:41:07.536Z,7.67
2019-03-15T09:42:07.517Z,7.62
2019-03-15T09:43:07.500Z,7.60
2019-03-15T09:44:07.513Z,7.56
2019-03-15T09:45:07.613Z,7.50
2019-03-15T09:46:07.521Z,7.40
2019-03-15T09:47:07.495Z,7.45
2019-03-15T09:48:07.592Z,7.38
2019-03-15T09:49:07.488Z,7.31
2019-03-15T09:50:20.616Z,7.31
2019-03-15T09:51:07.512Z,7.23
2019-03-15T09:52:07.479Z,7.29
2019-03-15T09:53:07.476Z,7.32
2019-03-15T09:54:07.471Z,7.27
2019-03-15T09:55:07.472Z,7.24
2019-03-15T09:56:07.501Z,7.26
2019-03-15T09:57:07.470Z,7.20
2019-03-15T09:58:07.466Z,7.37
2019-03-15T09:59:07.459Z,7.41
2019-03-15T10:00:07.555Z,7.38
2019-03-15T10:01:07.857Z,7.40
2019-03-15T10:02:07.984Z,7.42
2019-03-15T10:03:21.195Z,7.52
2019-03-15T10:04:07.446Z,7.62
2019-03-15T10:05:11.299Z,7.56
2019-03-15T10:06:14.753Z,7.67
2019-03-15T10:07:07.512Z,7.59
2019-03-15T10:08:07.483Z,7.67
2019-03-15T10:09:07.433Z,7.71
2019-03-15T10:10:13.429Z,7.77
2019-03-15T10:11:07.423Z,7.81
2019-03-15T10:12:07.449Z,7.75
2019-03-15T10:13:07.419Z,7.82
2019-03-15T10:14:07.417Z,7.89
2019-03-15T10:15:08.135Z,7.85
2019-03-15T10:16:07.416Z,7.82
2019-03-15T10:17:07.439Z,7.93
2019-03-15T10:18:07.492Z,7.90
2019-03-15T10:19:07.403Z,7.97
2019-03-15T10:20:07.404Z,8.00
2019-03-15T10:21:09.383Z,8.02
2019-03-15T10:22:07.423Z,7.96
2019-03-15T10:23:07.395Z,7.92
2019-03-15T10:24:07.389Z,7.87
2019-03-15T10:25:07.599Z,7.87
2019-03-15T10:26:07.387Z,7.94
2019-03-15T10:27:07.418Z,7.96
2019-03-15T10:28:07.407Z,7.97
2019-03-15T10:29:15.129Z,7.90
2019-03-15T10:30:07.376Z,7.93
2019-03-15T10:31:07.371Z,8.10
2019-03-15T10:32:07.400Z,8.07
2019-03-15T10:33:07.372Z,7.99
2019-03-15T10:34:07.364Z,8.03
2019-03-15T10:35:07.367Z,8.03
2019-03-15T10:36:07.359Z,8.07
2019-03-15T10:37:07.390Z,7.97
2019-03-15T10:38:07.359Z,7.96
2019-03-15T10:39:07.357Z,7.78
2019-03-15T10:40:07.361Z,7.62
2019-03-15T10:41:07.345Z,7.58
2019-03-15T10:42:07.377Z,7.69
2019-03-15T10:43:07.348Z,7.66
2019-03-15T10:44:07.348Z,7.81
2019-03-15T10:45:07.353Z,7.85
2019-03-15T10:46:07.335Z,7.85
2019-03-15T10:47:07.375Z,7.81
2019-03-15T10:48:08.279Z,7.85
2019-03-15T10:49:07.331Z,7.90
2019-03-15T10:50:07.328Z,8.10
2019-03-15T10:51:07.321Z,8.18
2019-03-15T10:52:07.355Z,8.14
2019-03-15T10:53:07.321Z,8.15
2019-03-15T10:54:07.328Z,8.17
2019-03-15T10:55:07.315Z,8.17
2019-03-15T10:56:07.316Z,8.17
2019-03-15T10:57:07.349Z,8.18
2019-03-15T10:58:07.306Z,8.22
2019-03-15T10:59:07.307Z,8.32
2019-03-15T11:00:07.300Z,8.32
2019-03-15T11:01:07.304Z,8.47
2019-03-15T11:02:07.335Z,8.53
2019-03-15T11:03:07.325Z,8.51
2019-03-15T11:04:07.299Z,8.66
2019-03-15T11:05:07.377Z,8.51
2019-03-15T11:06:07.291Z,8.44
2019-03-15T11:07:07.317Z,8.32
2019-03-15T11:08:07.337Z,8.29
2019-03-15T11:09:07.283Z,8.22
2019-03-15T11:10:07.283Z,8.26
2019-03-15T11:11:07.279Z,8.25
2019-03-15T11:12:07.279Z,8.29
2019-03-15T11:13:07.307Z,8.28
2019-03-15T11:14:07.284Z,8.32
2019-03-15T11:15:07.281Z,8.40
2019-03-15T11:16:07.270Z,8.50
2019-03-15T11:17:07.268Z,8.45
2019-03-15T11:18:07.286Z,8.45
2019-03-15T11:19:07.265Z,8.29
2019-03-15T11:20:07.262Z,8.29
2019-03-15T11:21:07.259Z,8.21
2019-03-15T11:22:07.259Z,8.14
2019-03-15T11:23:07.291Z,8.14
2019-03-15T11:24:07.255Z,8.18
2019-03-15T11:25:07.252Z,8.21
2019-03-15T11:26:13.431Z,8.28
2019-03-15T11:27:07.243Z,8.12
2019-03-15T11:28:07.270Z,8.20
2019-03-15T11:29:07.243Z,8.21
2019-03-15T11:30:07.237Z,8.35
2019-03-15T11:31:07.236Z,8.36
2019-03-15T11:32:07.238Z,8.50
2019-03-15T11:33:07.262Z,8.53
2019-03-15T11:34:07.237Z,8.50
2019-03-15T11:35:07.236Z,8.53
2019-03-15T11:36:07.222Z,8.72
2019-03-15T11:37:07.226Z,8.86
2019-03-15T11:38:07.251Z,8.71
2019-03-15T11:39:07.239Z,8.65
2019-03-15T11:40:07.219Z,8.79
2019-03-15T11:41:07.217Z,8.94
2019-03-15T11:42:07.231Z,8.73
2019-03-15T11:43:07.243Z,8.66
2019-03-15T11:44:07.239Z,8.84
2019-03-15T11:45:07.206Z,8.87
2019-03-15T11:46:07.207Z,8.66
2019-03-15T11:47:07.245Z,8.76
2019-03-15T11:48:09.008Z,8.73
2019-03-15T11:49:07.215Z,8.62
2019-03-15T11:50:07.207Z,8.66
2019-03-15T11:51:07.199Z,8.53
2019-03-15T11:52:07.202Z,8.60
2019-03-15T11:53:07.226Z,8.65
2019-03-15T11:54:07.194Z,8.54
2019-03-15T11:55:07.222Z,8.42
2019-03-15T11:56:07.193Z,8.35
2019-03-15T11:57:07.190Z,8.28
2019-03-15T11:58:07.217Z,8.29
2019-03-15T11:59:07.182Z,8.37
2019-03-15T12:00:07.185Z,8.33
2019-03-15T12:01:07.186Z,8.29
2019-03-15T12:02:10.497Z,8.29
2019-03-15T12:03:07.220Z,8.30
2019-03-15T12:04:07.172Z,8.21
2019-03-15T12:05:07.188Z,8.17
2019-03-15T12:06:07.173Z,8.04
2019-03-15T12:07:10.231Z,7.96
2019-03-15T12:08:07.198Z,7.94
2019-03-15T12:09:07.163Z,8.07
2019-03-15T12:10:07.166Z,7.97
2019-03-15T12:11:07.160Z,8.00
2019-03-15T12:12:07.159Z,7.99
2019-03-15T12:13:07.190Z,7.78
2019-03-15T12:14:07.157Z,7.82
2019-03-15T12:15:07.149Z,7.92
2019-03-15T12:16:07.144Z,7.85
2019-03-15T12:17:07.145Z,7.82
2019-03-15T12:18:08.534Z,7.90
2019-03-15T12:19:15.115Z,7.93
2019-03-15T12:20:07.149Z,7.93
2019-03-15T12:21:07.167Z,7.87
2019-03-15T12:22:08.166Z,7.81
2019-03-15T12:23:08.074Z,7.96
2019-03-15T12:24:07.170Z,7.93
2019-03-15T12:25:07.126Z,7.85
2019-03-15T12:26:09.931Z,7.92
2019-03-15T12:27:07.123Z,7.84
2019-03-15T12:28:07.151Z,7.85
2019-03-15T12:29:07.115Z,7.87
2019-03-15T12:30:07.113Z,7.82
2019-03-15T12:31:07.106Z,7.78
2019-03-15T12:32:07.106Z,7.85
2019-03-15T12:33:07.221Z,7.94
2019-03-15T12:34:07.130Z,7.89
2019-03-15T12:35:07.099Z,7.92
2019-03-15T12:36:07.093Z,7.93
2019-03-15T12:37:07.118Z,7.94
2019-03-15T12:38:07.091Z,8.02
2019-03-15T12:39:07.133Z,7.96
2019-03-15T12:40:07.134Z,8.00
2019-03-15T12:41:07.083Z,8.02
2019-03-15T12:42:07.084Z,8.11
2019-03-15T12:43:07.079Z,8.20
2019-03-15T12:44:10.348Z,8.11
2019-03-15T12:45:07.255Z,8.08
2019-03-15T12:46:07.102Z,8.25
2019-03-15T12:47:07.068Z,8.25
2019-03-15T12:48:07.066Z,8.20
2019-03-15T12:49:07.101Z,8.25
2019-03-15T12:50:07.063Z,8.29
2019-03-15T12:51:07.444Z,8.30
2019-03-15T12:52:07.439Z,8.32
2019-03-15T12:53:07.055Z,8.39
2019-03-15T12:54:07.073Z,8.33
2019-03-15T12:55:07.045Z,8.40
2019-03-15T12:56:07.221Z,8.51
2019-03-15T12:57:07.048Z,8.55
2019-03-15T12:58:07.038Z,8.63
2019-03-15T12:59:07.117Z,8.55
2019-03-15T13:00:07.035Z,8.66
2019-03-15T13:01:07.056Z,8.62
2019-03-15T13:02:07.029Z,8.66
2019-03-15T13:03:07.027Z,8.66
2019-03-15T13:04:07.050Z,8.66
2019-03-15T13:05:07.050Z,8.58
2019-03-15T13:06:07.019Z,8.69
2019-03-15T13:07:07.016Z,8.63
2019-03-15T13:08:07.013Z,8.63
2019-03-15T13:09:07.047Z,8.57
2019-03-15T13:10:10.139Z,8.58
2019-03-15T13:11:07.034Z,8.55
2019-03-15T13:12:07.002Z,8.66
2019-03-15T13:13:07.003Z,8.65
2019-03-15T13:14:07.236Z,8.62
2019-03-15T13:15:06.998Z,8.68
2019-03-15T13:16:06.996Z,8.78
2019-03-15T13:17:06.994Z,8.65
2019-03-15T13:18:06.988Z,8.65